Meath Environmental Platform

Observations for Trim Patrick St

Time AQI Temp °C Hum % Pres Pa CO μg/m³ H₂S μg/m³ NO μg/m³ NO₂ μg/m³ O₃ μg/m³ SO₂ μg/m³ PM1 μg/m³ PM2.5 μg/m³ PM10 μg/m³
Sunday 2 August 2026
06:50 2 14 76 38,460 0.37 0.65 2.35 22.45 22.19 0 8 13.24 14.56
06:49 2 14 76 38,460 0.37 0.96 2.52 22.45 21.5 0 6.29 11.82 13.01
06:48 2 13.9 76 38,460 0.36 1.24 2.4 24.06 20.9 0 7.14 12.52 13.78
06:47 2 13.9 77 38,460 0.37 0.85 2.42 22.83 23.25 0 7.14 11.81 12.99
06:46 2 13.8 77 38,460 0.36 1.4 2.12 22.92 20.86 0 5.43 11.8 12.98
06:45 2 13.8 77 38,460 0.37 1.48 2.08 23.73 22.43 0 6.29 11.08 12.19
06:44 2 13.7 77 38,460 0.37 1.4 2.04 23.57 22.54 0 6.29 12.49 13.74
06:43 2 13.7 77 38,460 0.37 1.55 2.18 23.04 22.35 0 7.14 11.78 12.96
06:42 2 13.7 77 38,460 0.36 1.14 2.01 22.8 22.52 0 7.14 13.19 14.51
06:41 2 13.6 77 38,460 0.37 1.32 2.37 23.17 23.42 0 7.14 11.06 12.17
06:40 2 13.6 77 38,460 0.35 1.66 2.3 24.21 22.52 0 7.14 13.18 14.5
06:39 2 13.5 77 38,460 0.36 1.4 2.25 22.99 24.12 0 8 13.87 15.26
06:38 2 13.5 77 38,460 0.35 1.24 2.08 22.74 23.73 0 7.14 13.16 14.48
06:37 2 13.5 77 38,460 0.36 1.34 1.96 23.05 24.32 0 8 12.45 13.69
06:36 2 13.4 77 38,460 0.36 1.42 2.04 22.83 25.37 0 6.29 11.74 12.91
06:35 2 13.4 78 38,460 0.35 1.5 2.04 23.14 23.58 0 8.86 13.14 14.46
06:34 2 13.3 78 38,460 0.35 1.83 2.19 23.52 25.35 0 8 13.13 14.45
06:33 2 13.3 78 38,460 0.34 1.76 2.39 23.52 23.55 0 7.14 12.43 13.67
06:31 2 13.2 78 38,460 0.34 1.65 2.5 23.33 23.9 0 7.14 11.72 12.89
06:29 2 13.2 78 38,460 0.35 1.63 2.34 23.37 24.01 0 7.14 12.41 13.65